sensor_id;sensor_type;location;lat;lon;timestamp;pressure;altitude;pressure_sealevel;temperature
71640;BMP280;60912;48.968;10.124;2024-02-14T00:00:26;96955.47;;;2.71
71640;BMP280;60912;48.968;10.124;2024-02-14T00:02:51;96953.31;;;2.75
71640;BMP280;60912;48.968;10.124;2024-02-14T00:05:17;96958.13;;;2.86
71640;BMP280;60912;48.968;10.124;2024-02-14T00:07:43;96955.78;;;2.99
71640;BMP280;60912;48.968;10.124;2024-02-14T00:10:08;96952.72;;;3.12
71640;BMP280;60912;48.968;10.124;2024-02-14T00:12:35;96964.97;;;3.22
71640;BMP280;60912;48.968;10.124;2024-02-14T00:15:01;96965.72;;;3.22
71640;BMP280;60912;48.968;10.124;2024-02-14T00:17:28;96957.41;;;3.11
71640;BMP280;60912;48.968;10.124;2024-02-14T00:19:53;96963.06;;;3.08
71640;BMP280;60912;48.968;10.124;2024-02-14T00:22:18;96960.53;;;3.04
71640;BMP280;60912;48.968;10.124;2024-02-14T00:24:44;96967.25;;;3.03
71640;BMP280;60912;48.968;10.124;2024-02-14T00:27:09;96965.50;;;3.06
71640;BMP280;60912;48.968;10.124;2024-02-14T00:29:34;96960.63;;;3.10
71640;BMP280;60912;48.968;10.124;2024-02-14T00:32:00;96963.75;;;3.03
71640;BMP280;60912;48.968;10.124;2024-02-14T00:34:26;96959.81;;;3.04
71640;BMP280;60912;48.968;10.124;2024-02-14T00:36:51;96963.75;;;3.03
71640;BMP280;60912;48.968;10.124;2024-02-14T00:39:17;96969.22;;;3.03
71640;BMP280;60912;48.968;10.124;2024-02-14T00:41:42;96959.81;;;3.04
71640;BMP280;60912;48.968;10.124;2024-02-14T00:44:08;96967.91;;;2.98
71640;BMP280;60912;48.968;10.124;2024-02-14T00:46:33;96963.22;;;2.99
71640;BMP280;60912;48.968;10.124;2024-02-14T00:48:58;96968.66;;;2.99
71640;BMP280;60912;48.968;10.124;2024-02-14T00:51:24;96952.88;;;3.03
71640;BMP280;60912;48.968;10.124;2024-02-14T00:53:51;96967.09;;;3.12
71640;BMP280;60912;48.968;10.124;2024-02-14T00:56:16;96963.88;;;3.14
71640;BMP280;60912;48.968;10.124;2024-02-14T00:58:43;96968.59;;;3.13
71640;BMP280;60912;48.968;10.124;2024-02-14T01:01:08;96963.66;;;3.17
71640;BMP280;60912;48.968;10.124;2024-02-14T01:03:33;96967.41;;;3.20
71640;BMP280;60912;48.968;10.124;2024-02-14T01:05:59;96961.75;;;3.23
71640;BMP280;60912;48.968;10.124;2024-02-14T01:08:24;96956.28;;;3.23
71640;BMP280;60912;48.968;10.124;2024-02-14T01:10:49;96955.25;;;3.15
71640;BMP280;60912;48.968;10.124;2024-02-14T01:13:19;96954.69;;;3.11
71640;BMP280;60912;48.968;10.124;2024-02-14T01:15:45;96954.97;;;3.13
71640;BMP280;60912;48.968;10.124;2024-02-14T01:18:10;96956.13;;;3.07
71640;BMP280;60912;48.968;10.124;2024-02-14T01:20:35;96957.47;;;3.17
71640;BMP280;60912;48.968;10.124;2024-02-14T01:23:02;96957.75;;;3.19
71640;BMP280;60912;48.968;10.124;2024-02-14T01:25:27;96960.19;;;3.17
71640;BMP280;60912;48.968;10.124;2024-02-14T01:27:53;96961.16;;;3.14
71640;BMP280;60912;48.968;10.124;2024-02-14T01:30:18;96954.50;;;3.15
71640;BMP280;60912;48.968;10.124;2024-02-14T01:32:44;96950.00;;;3.12
71640;BMP280;60912;48.968;10.124;2024-02-14T01:35:09;96956.41;;;3.09
71640;BMP280;60912;48.968;10.124;2024-02-14T01:37:35;96943.88;;;2.96
71640;BMP280;60912;48.968;10.124;2024-02-14T01:40:00;96952.22;;;2.87
71640;BMP280;60912;48.968;10.124;2024-02-14T01:42:26;96939.47;;;2.79
71640;BMP280;60912;48.968;10.124;2024-02-14T01:44:53;96945.41;;;2.77
71640;BMP280;60912;48.968;10.124;2024-02-14T01:47:20;96947.91;;;2.81
71640;BMP280;60912;48.968;10.124;2024-02-14T01:49:46;96946.78;;;2.87
71640;BMP280;60912;48.968;10.124;2024-02-14T01:52:12;96942.84;;;2.88
71640;BMP280;60912;48.968;10.124;2024-02-14T01:54:39;96937.91;;;2.92
71640;BMP280;60912;48.968;10.124;2024-02-14T01:57:04;96940.13;;;2.94
71640;BMP280;60912;48.968;10.124;2024-02-14T01:59:30;96937.84;;;2.87
71640;BMP280;60912;48.968;10.124;2024-02-14T02:01:55;96944.19;;;2.78
71640;BMP280;60912;48.968;10.124;2024-02-14T02:04:21;96943.09;;;2.70
71640;BMP280;60912;48.968;10.124;2024-02-14T02:06:46;96942.53;;;2.66
71640;BMP280;60912;48.968;10.124;2024-02-14T02:09:12;96935.63;;;2.65
71640;BMP280;60912;48.968;10.124;2024-02-14T02:11:51;96931.06;;;2.56
71640;BMP280;60912;48.968;10.124;2024-02-14T02:14:18;96933.78;;;2.56
71640;BMP280;60912;48.968;10.124;2024-02-14T02:16:44;96934.38;;;2.66
71640;BMP280;60912;48.968;10.124;2024-02-14T02:19:11;96922.69;;;2.80
71640;BMP280;60912;48.968;10.124;2024-02-14T02:21:36;96932.47;;;2.92
71640;BMP280;60912;48.968;10.124;2024-02-14T02:24:02;96926.31;;;2.97
71640;BMP280;60912;48.968;10.124;2024-02-14T02:26:28;96933.88;;;3.08
71640;BMP280;60912;48.968;10.124;2024-02-14T02:28:53;96930.78;;;3.21
71640;BMP280;60912;48.968;10.124;2024-02-14T02:31:22;96932.53;;;3.24
71640;BMP280;60912;48.968;10.124;2024-02-14T02:33:47;96924.63;;;3.26
71640;BMP280;60912;48.968;10.124;2024-02-14T02:36:12;96930.59;;;3.30
71640;BMP280;60912;48.968;10.124;2024-02-14T02:38:38;96928.41;;;3.34
71640;BMP280;60912;48.968;10.124;2024-02-14T02:41:04;96928.97;;;3.38
71640;BMP280;60912;48.968;10.124;2024-02-14T02:43:33;96928.69;;;3.36
71640;BMP280;60912;48.968;10.124;2024-02-14T02:45:59;96922.06;;;3.17
71640;BMP280;60912;48.968;10.124;2024-02-14T02:48:24;96924.16;;;3.02
71640;BMP280;60912;48.968;10.124;2024-02-14T02:50:50;96925.84;;;2.99
71640;BMP280;60912;48.968;10.124;2024-02-14T02:53:16;96929.31;;;3.00
71640;BMP280;60912;48.968;10.124;2024-02-14T02:55:41;96930.53;;;2.99
71640;BMP280;60912;48.968;10.124;2024-02-14T02:58:07;96940.63;;;2.92
71640;BMP280;60912;48.968;10.124;2024-02-14T03:00:33;96933.31;;;2.78
71640;BMP280;60912;48.968;10.124;2024-02-14T03:02:59;96931.13;;;2.82
71640;BMP280;60912;48.968;10.124;2024-02-14T03:05:25;96929.50;;;2.90
71640;BMP280;60912;48.968;10.124;2024-02-14T03:07:51;96931.28;;;2.99
71640;BMP280;60912;48.968;10.124;2024-02-14T03:10:18;96933.66;;;3.12
71640;BMP280;60912;48.968;10.124;2024-02-14T03:12:47;96929.59;;;3.27
71640;BMP280;60912;48.968;10.124;2024-02-14T03:15:13;96926.06;;;3.47
71640;BMP280;60912;48.968;10.124;2024-02-14T03:17:39;96917.19;;;3.52
71640;BMP280;60912;48.968;10.124;2024-02-14T03:20:05;96917.22;;;3.58
71640;BMP280;60912;48.968;10.124;2024-02-14T03:22:39;96914.34;;;3.67
71640;BMP280;60912;48.968;10.124;2024-02-14T03:25:19;96912.88;;;3.71
71640;BMP280;60912;48.968;10.124;2024-02-14T03:27:45;96914.13;;;3.76
71640;BMP280;60912;48.968;10.124;2024-02-14T03:30:12;96909.72;;;3.79
71640;BMP280;60912;48.968;10.124;2024-02-14T03:32:38;96906.75;;;3.82
71640;BMP280;60912;48.968;10.124;2024-02-14T03:35:04;96903.06;;;3.85
71640;BMP280;60912;48.968;10.124;2024-02-14T03:37:29;96903.09;;;3.91
71640;BMP280;60912;48.968;10.124;2024-02-14T03:39:54;96902.84;;;3.89
71640;BMP280;60912;48.968;10.124;2024-02-14T03:42:20;96904.50;;;3.81
71640;BMP280;60912;48.968;10.124;2024-02-14T03:44:45;96898.03;;;3.72
71640;BMP280;60912;48.968;10.124;2024-02-14T03:47:12;96905.19;;;3.70
71640;BMP280;60912;48.968;10.124;2024-02-14T03:49:38;96908.38;;;3.68
71640;BMP280;60912;48.968;10.124;2024-02-14T03:52:06;96902.22;;;3.73
71640;BMP280;60912;48.968;10.124;2024-02-14T03:54:38;96896.53;;;3.71
71640;BMP280;60912;48.968;10.124;2024-02-14T03:57:03;96902.50;;;3.76
71640;BMP280;60912;48.968;10.124;2024-02-14T03:59:30;96900.53;;;3.82
71640;BMP280;60912;48.968;10.124;2024-02-14T04:01:55;96893.16;;;3.88
71640;BMP280;60912;48.968;10.124;2024-02-14T04:04:21;96882.53;;;3.95
71640;BMP280;60912;48.968;10.124;2024-02-14T04:06:46;96889.25;;;4.00
71640;BMP280;60912;48.968;10.124;2024-02-14T04:09:12;96900.16;;;3.94
71640;BMP280;60912;48.968;10.124;2024-02-14T04:11:38;96911.28;;;3.91
71640;BMP280;60912;48.968;10.124;2024-02-14T04:14:03;96913.47;;;3.87
71640;BMP280;60912;48.968;10.124;2024-02-14T04:16:28;96917.16;;;3.84
71640;BMP280;60912;48.968;10.124;2024-02-14T04:18:54;96918.44;;;3.88
71640;BMP280;60912;48.968;10.124;2024-02-14T04:21:21;96929.09;;;3.86
71640;BMP280;60912;48.968;10.124;2024-02-14T04:23:46;96918.66;;;3.85
71640;BMP280;60912;48.968;10.124;2024-02-14T04:26:21;96926.84;;;3.85
71640;BMP280;60912;48.968;10.124;2024-02-14T04:28:46;96926.66;;;3.94
71640;BMP280;60912;48.968;10.124;2024-02-14T04:31:12;96928.53;;;4.14
71640;BMP280;60912;48.968;10.124;2024-02-14T04:33:37;96920.38;;;4.25
71640;BMP280;60912;48.968;10.124;2024-02-14T04:36:02;96926.66;;;4.36
71640;BMP280;60912;48.968;10.124;2024-02-14T04:38:29;96922.19;;;4.44
71640;BMP280;60912;48.968;10.124;2024-02-14T04:40:55;96927.47;;;4.54
71640;BMP280;60912;48.968;10.124;2024-02-14T04:43:21;96924.47;;;4.57
71640;BMP280;60912;48.968;10.124;2024-02-14T04:45:47;96932.72;;;4.63
71640;BMP280;60912;48.968;10.124;2024-02-14T04:48:13;96926.97;;;4.61
71640;BMP280;60912;48.968;10.124;2024-02-14T04:50:38;96933.19;;;4.56
71640;BMP280;60912;48.968;10.124;2024-02-14T04:53:04;96929.19;;;4.57
71640;BMP280;60912;48.968;10.124;2024-02-14T04:55:29;96924.00;;;4.53
71640;BMP280;60912;48.968;10.124;2024-02-14T04:57:54;96930.69;;;4.52
71640;BMP280;60912;48.968;10.124;2024-02-14T05:00:20;96923.25;;;4.53
71640;BMP280;60912;48.968;10.124;2024-02-14T05:02:45;96918.06;;;4.55
71640;BMP280;60912;48.968;10.124;2024-02-14T05:05:10;96920.06;;;4.65
71640;BMP280;60912;48.968;10.124;2024-02-14T05:07:36;96919.09;;;4.74
71640;BMP280;60912;48.968;10.124;2024-02-14T05:10:01;96918.34;;;4.73
71640;BMP280;60912;48.968;10.124;2024-02-14T05:12:27;96928.75;;;4.75
71640;BMP280;60912;48.968;10.124;2024-02-14T05:14:52;96915.38;;;4.66
71640;BMP280;60912;48.968;10.124;2024-02-14T05:17:18;96907.34;;;4.57
71640;BMP280;60912;48.968;10.124;2024-02-14T05:19:43;96915.63;;;4.68
71640;BMP280;60912;48.968;10.124;2024-02-14T05:22:09;96912.66;;;4.82
71640;BMP280;60912;48.968;10.124;2024-02-14T05:24:34;96915.16;;;4.80
71640;BMP280;60912;48.968;10.124;2024-02-14T05:27:03;96913.63;;;4.74
71640;BMP280;60912;48.968;10.124;2024-02-14T05:29:28;96917.84;;;4.75
71640;BMP280;60912;48.968;10.124;2024-02-14T05:31:53;96912.38;;;4.75
71640;BMP280;60912;48.968;10.124;2024-02-14T05:34:21;96924.06;;;4.75
71640;BMP280;60912;48.968;10.124;2024-02-14T05:36:48;96931.28;;;4.78
71640;BMP280;60912;48.968;10.124;2024-02-14T05:39:14;96929.56;;;4.81
71640;BMP280;60912;48.968;10.124;2024-02-14T05:41:39;96933.53;;;4.80
71640;BMP280;60912;48.968;10.124;2024-02-14T05:44:05;96945.19;;;4.86
71640;BMP280;60912;48.968;10.124;2024-02-14T05:46:30;96950.66;;;4.86
71640;BMP280;60912;48.968;10.124;2024-02-14T05:48:55;96955.91;;;4.90
71640;BMP280;60912;48.968;10.124;2024-02-14T05:51:22;96953.66;;;4.99
71640;BMP280;60912;48.968;10.124;2024-02-14T05:53:48;96948.22;;;4.99
71640;BMP280;60912;48.968;10.124;2024-02-14T05:56:13;96947.22;;;5.02
71640;BMP280;60912;48.968;10.124;2024-02-14T05:58:38;96945.72;;;5.01
71640;BMP280;60912;48.968;10.124;2024-02-14T06:01:04;96951.94;;;5.02
71640;BMP280;60912;48.968;10.124;2024-02-14T06:03:29;96956.66;;;5.01
71640;BMP280;60912;48.968;10.124;2024-02-14T06:05:55;96957.41;;;5.13
71640;BMP280;60912;48.968;10.124;2024-02-14T06:08:20;96970.34;;;5.12
71640;BMP280;60912;48.968;10.124;2024-02-14T06:10:45;96960.63;;;5.11
71640;BMP280;60912;48.968;10.124;2024-02-14T06:13:11;96963.88;;;5.15
71640;BMP280;60912;48.968;10.124;2024-02-14T06:15:36;96970.84;;;5.22
71640;BMP280;60912;48.968;10.124;2024-02-14T06:18:01;96954.25;;;5.25
71640;BMP280;60912;48.968;10.124;2024-02-14T06:20:27;96959.69;;;5.25
71640;BMP280;60912;48.968;10.124;2024-02-14T06:22:52;96961.69;;;5.31
71640;BMP280;60912;48.968;10.124;2024-02-14T06:25:18;96957.19;;;5.27
71640;BMP280;60912;48.968;10.124;2024-02-14T06:27:43;96961.16;;;5.32
71640;BMP280;60912;48.968;10.124;2024-02-14T06:30:09;96961.16;;;5.32
71640;BMP280;60912;48.968;10.124;2024-02-14T06:32:35;96949.75;;;5.34
71640;BMP280;60912;48.968;10.124;2024-02-14T06:35:00;96939.81;;;5.31
71640;BMP280;60912;48.968;10.124;2024-02-14T06:37:25;96943.31;;;5.37
71640;BMP280;60912;48.968;10.124;2024-02-14T06:39:51;96953.50;;;5.31
71640;BMP280;60912;48.968;10.124;2024-02-14T06:42:17;96956.22;;;5.31
71640;BMP280;60912;48.968;10.124;2024-02-14T06:44:42;96957.19;;;5.27
71640;BMP280;60912;48.968;10.124;2024-02-14T06:47:07;96948.03;;;5.31
71640;BMP280;60912;48.968;10.124;2024-02-14T06:49:33;96960.69;;;5.34
71640;BMP280;60912;48.968;10.124;2024-02-14T06:51:58;96951.25;;;5.35
71640;BMP280;60912;48.968;10.124;2024-02-14T06:54:23;96954.25;;;5.25
71640;BMP280;60912;48.968;10.124;2024-02-14T06:56:49;96946.03;;;5.25
71640;BMP280;60912;48.968;10.124;2024-02-14T06:59:14;96939.06;;;5.30
71640;BMP280;60912;48.968;10.124;2024-02-14T07:01:39;96931.38;;;5.40
71640;BMP280;60912;48.968;10.124;2024-02-14T07:04:05;96945.28;;;5.64
71640;BMP280;60912;48.968;10.124;2024-02-14T07:06:30;96956.69;;;5.90
71640;BMP280;60912;48.968;10.124;2024-02-14T07:08:56;96951.63;;;6.91
71640;BMP280;60912;48.968;10.124;2024-02-14T07:11:21;96958.56;;;8.17
71640;BMP280;60912;48.968;10.124;2024-02-14T07:13:47;96957.25;;;8.67
71640;BMP280;60912;48.968;10.124;2024-02-14T07:16:12;96965.00;;;8.63
71640;BMP280;60912;48.968;10.124;2024-02-14T07:18:38;96976.88;;;8.33
71640;BMP280;60912;48.968;10.124;2024-02-14T07:21:03;96982.47;;;7.98
71640;BMP280;60912;48.968;10.124;2024-02-14T07:23:31;96989.28;;;7.61
71640;BMP280;60912;48.968;10.124;2024-02-14T07:25:57;96978.66;;;7.47
71640;BMP280;60912;48.968;10.124;2024-02-14T07:28:22;96985.22;;;7.38
71640;BMP280;60912;48.968;10.124;2024-02-14T07:30:48;96977.31;;;7.23
71640;BMP280;60912;48.968;10.124;2024-02-14T07:33:13;96981.09;;;7.20
71640;BMP280;60912;48.968;10.124;2024-02-14T07:35:39;96982.53;;;7.33
71640;BMP280;60912;48.968;10.124;2024-02-14T07:38:04;96987.47;;;7.34
71640;BMP280;60912;48.968;10.124;2024-02-14T07:40:30;96984.06;;;7.28
71640;BMP280;60912;48.968;10.124;2024-02-14T07:42:59;96981.56;;;7.30
71640;BMP280;60912;48.968;10.124;2024-02-14T07:45:24;96990.00;;;7.32
71640;BMP280;60912;48.968;10.124;2024-02-14T07:47:50;96990.00;;;7.32
71640;BMP280;60912;48.968;10.124;2024-02-14T07:50:16;96997.75;;;7.28
71640;BMP280;60912;48.968;10.124;2024-02-14T07:52:42;96998.22;;;7.32
71640;BMP280;60912;48.968;10.124;2024-02-14T07:55:09;96997.69;;;7.39
71640;BMP280;60912;48.968;10.124;2024-02-14T07:57:37;97004.41;;;7.38
71640;BMP280;60912;48.968;10.124;2024-02-14T08:00:03;96996.66;;;7.42
71640;BMP280;60912;48.968;10.124;2024-02-14T08:02:28;96995.84;;;7.47
71640;BMP280;60912;48.968;10.124;2024-02-14T08:04:54;97002.56;;;7.52
71640;BMP280;60912;48.968;10.124;2024-02-14T08:07:20;97006.59;;;7.45
71640;BMP280;60912;48.968;10.124;2024-02-14T08:09:45;97003.41;;;7.41
71640;BMP280;60912;48.968;10.124;2024-02-14T08:12:10;96996.97;;;7.33
71640;BMP280;60912;48.968;10.124;2024-02-14T08:14:35;97006.91;;;7.42
71640;BMP280;60912;48.968;10.124;2024-02-14T08:17:01;97010.50;;;7.55
71640;BMP280;60912;48.968;10.124;2024-02-14T08:19:27;97011.16;;;7.67
71640;BMP280;60912;48.968;10.124;2024-02-14T08:21:52;97012.31;;;7.83
71640;BMP280;60912;48.968;10.124;2024-02-14T08:24:24;97018.44;;;7.94
71640;BMP280;60912;48.968;10.124;2024-02-14T08:26:49;97016.44;;;7.95
71640;BMP280;60912;48.968;10.124;2024-02-14T08:29:15;97005.13;;;8.04
71640;BMP280;60912;48.968;10.124;2024-02-14T08:31:40;97011.75;;;8.14
71640;BMP280;60912;48.968;10.124;2024-02-14T08:34:05;97019.22;;;8.19
71640;BMP280;60912;48.968;10.124;2024-02-14T08:36:31;97014.97;;;8.18
71640;BMP280;60912;48.968;10.124;2024-02-14T08:38:56;97013.41;;;8.23
71640;BMP280;60912;48.968;10.124;2024-02-14T08:41:21;97013.88;;;8.27
71640;BMP280;60912;48.968;10.124;2024-02-14T08:43:48;97007.38;;;8.30
71640;BMP280;60912;48.968;10.124;2024-02-14T08:46:13;97011.31;;;8.34
71640;BMP280;60912;48.968;10.124;2024-02-14T08:48:42;97014.56;;;8.57
71640;BMP280;60912;48.968;10.124;2024-02-14T08:51:12;97019.78;;;8.79
71640;BMP280;60912;48.968;10.124;2024-02-14T08:53:38;97022.56;;;8.98
71640;BMP280;60912;48.968;10.124;2024-02-14T08:56:04;97009.22;;;9.02
71640;BMP280;60912;48.968;10.124;2024-02-14T08:58:29;97012.66;;;9.08
71640;BMP280;60912;48.968;10.124;2024-02-14T09:00:54;97014.41;;;9.24
71640;BMP280;60912;48.968;10.124;2024-02-14T09:03:20;97009.88;;;9.46
71640;BMP280;60912;48.968;10.124;2024-02-14T09:05:45;97006.38;;;9.45
71640;BMP280;60912;48.968;10.124;2024-02-14T09:08:12;97005.25;;;9.67
71640;BMP280;60912;48.968;10.124;2024-02-14T09:10:38;97007.25;;;9.98
71640;BMP280;60912;48.968;10.124;2024-02-14T09:13:03;96999.91;;;10.01
71640;BMP280;60912;48.968;10.124;2024-02-14T09:15:29;96996.84;;;10.04
71640;BMP280;60912;48.968;10.124;2024-02-14T09:17:56;97002.97;;;9.84
71640;BMP280;60912;48.968;10.124;2024-02-14T09:20:22;97002.31;;;9.78
71640;BMP280;60912;48.968;10.124;2024-02-14T09:22:48;97005.31;;;9.93
71640;BMP280;60912;48.968;10.124;2024-02-14T09:25:13;97002.25;;;10.10
71640;BMP280;60912;48.968;10.124;2024-02-14T09:27:39;97009.44;;;10.13
71640;BMP280;60912;48.968;10.124;2024-02-14T09:30:07;97004.91;;;10.15
71640;BMP280;60912;48.968;10.124;2024-02-14T09:32:33;97012.31;;;10.20
71640;BMP280;60912;48.968;10.124;2024-02-14T09:34:59;97014.00;;;10.10
71640;BMP280;60912;48.968;10.124;2024-02-14T09:37:25;97016.03;;;10.10
71640;BMP280;60912;48.968;10.124;2024-02-14T09:39:50;97018.56;;;10.08
71640;BMP280;60912;48.968;10.124;2024-02-14T09:42:16;97016.97;;;10.12
71640;BMP280;60912;48.968;10.124;2024-02-14T09:44:45;97020.38;;;10.32
71640;BMP280;60912;48.968;10.124;2024-02-14T09:47:12;97019.94;;;10.41
71640;BMP280;60912;48.968;10.124;2024-02-14T09:49:39;97030.22;;;10.40
71640;BMP280;60912;48.968;10.124;2024-02-14T09:52:05;97029.38;;;10.45
71640;BMP280;60912;48.968;10.124;2024-02-14T09:54:32;97034.13;;;10.58
71640;BMP280;60912;48.968;10.124;2024-02-14T09:57:02;97026.72;;;10.53
71640;BMP280;60912;48.968;10.124;2024-02-14T09:59:28;97028.72;;;10.52
71640;BMP280;60912;48.968;10.124;2024-02-14T10:01:54;97025.00;;;10.50
71640;BMP280;60912;48.968;10.124;2024-02-14T10:04:19;97011.16;;;10.55
71640;BMP280;60912;48.968;10.124;2024-02-14T10:06:45;97015.06;;;10.60
71640;BMP280;60912;48.968;10.124;2024-02-14T10:09:11;97020.34;;;10.71
71640;BMP280;60912;48.968;10.124;2024-02-14T10:11:37;97014.63;;;10.69
71640;BMP280;60912;48.968;10.124;2024-02-14T10:14:04;97018.16;;;10.90
71640;BMP280;60912;48.968;10.124;2024-02-14T10:16:30;97012.84;;;11.05
71640;BMP280;60912;48.968;10.124;2024-02-14T10:18:55;97018.03;;;11.30
71640;BMP280;60912;48.968;10.124;2024-02-14T10:21:21;97008.09;;;11.27
71640;BMP280;60912;48.968;10.124;2024-02-14T10:23:47;97003.72;;;11.31
71640;BMP280;60912;48.968;10.124;2024-02-14T10:26:15;97005.41;;;11.34
71640;BMP280;60912;48.968;10.124;2024-02-14T10:28:44;97012.59;;;11.37
71640;BMP280;60912;48.968;10.124;2024-02-14T10:31:12;97009.84;;;11.37
71640;BMP280;60912;48.968;10.124;2024-02-14T10:33:38;97017.28;;;11.63
71640;BMP280;60912;48.968;10.124;2024-02-14T10:36:07;97016.50;;;11.83
71640;BMP280;60912;48.968;10.124;2024-02-14T10:38:33;97013.72;;;11.83
71640;BMP280;60912;48.968;10.124;2024-02-14T10:41:02;97013.47;;;11.94
71640;BMP280;60912;48.968;10.124;2024-02-14T10:43:28;97021.53;;;11.92
71640;BMP280;60912;48.968;10.124;2024-02-14T10:45:54;96999.13;;;12.04
71640;BMP280;60912;48.968;10.124;2024-02-14T10:48:22;97007.81;;;11.79
71640;BMP280;60912;48.968;10.124;2024-02-14T10:50:52;97007.16;;;11.66
71640;BMP280;60912;48.968;10.124;2024-02-14T10:53:18;97004.84;;;11.77
71640;BMP280;60912;48.968;10.124;2024-02-14T10:55:46;96993.91;;;11.92
71640;BMP280;60912;48.968;10.124;2024-02-14T10:58:12;96998.03;;;11.78
71640;BMP280;60912;48.968;10.124;2024-02-14T11:00:39;97001.16;;;12.03
71640;BMP280;60912;48.968;10.124;2024-02-14T11:03:06;97001.78;;;12.09
71640;BMP280;60912;48.968;10.124;2024-02-14T11:05:53;96997.16;;;12.12
71640;BMP280;60912;48.968;10.124;2024-02-14T11:08:19;96996.84;;;12.51
71640;BMP280;60912;48.968;10.124;2024-02-14T11:10:54;96993.53;;;12.60
71640;BMP280;60912;48.968;10.124;2024-02-14T11:13:20;96990.09;;;12.82
71640;BMP280;60912;48.968;10.124;2024-02-14T11:15:46;96992.38;;;12.99
71640;BMP280;60912;48.968;10.124;2024-02-14T11:18:12;96992.34;;;12.84
71640;BMP280;60912;48.968;10.124;2024-02-14T11:20:37;97001.53;;;12.71
71640;BMP280;60912;48.968;10.124;2024-02-14T11:23:06;96993.63;;;12.83
71640;BMP280;60912;48.968;10.124;2024-02-14T11:25:36;97002.50;;;12.97
71640;BMP280;60912;48.968;10.124;2024-02-14T11:28:18;97006.94;;;13.00
71640;BMP280;60912;48.968;10.124;2024-02-14T11:30:48;97007.50;;;12.98
71640;BMP280;60912;48.968;10.124;2024-02-14T11:33:23;97002.09;;;12.93
71640;BMP280;60912;48.968;10.124;2024-02-14T11:35:53;97011.25;;;12.65
71640;BMP280;60912;48.968;10.124;2024-02-14T11:38:20;97011.09;;;12.70
71640;BMP280;60912;48.968;10.124;2024-02-14T11:40:45;97017.56;;;12.80
71640;BMP280;60912;48.968;10.124;2024-02-14T11:43:18;97014.84;;;12.96
71640;BMP280;60912;48.968;10.124;2024-02-14T11:45:45;97013.44;;;13.10
71640;BMP280;60912;48.968;10.124;2024-02-14T11:48:15;97004.03;;;13.58
71640;BMP280;60912;48.968;10.124;2024-02-14T11:50:42;97002.72;;;13.82
71640;BMP280;60912;48.968;10.124;2024-02-14T11:53:11;96993.53;;;13.64
71640;BMP280;60912;48.968;10.124;2024-02-14T11:55:39;97005.72;;;13.39
71640;BMP280;60912;48.968;10.124;2024-02-14T11:58:08;97002.94;;;13.39
71640;BMP280;60912;48.968;10.124;2024-02-14T12:00:37;97000.53;;;13.58
71640;BMP280;60912;48.968;10.124;2024-02-14T12:03:06;96991.13;;;13.76
71640;BMP280;60912;48.968;10.124;2024-02-14T12:05:32;96985.22;;;13.72
71640;BMP280;60912;48.968;10.124;2024-02-14T12:07:59;96992.25;;;13.65
71640;BMP280;60912;48.968;10.124;2024-02-14T12:10:26;96989.28;;;13.48
71640;BMP280;60912;48.968;10.124;2024-02-14T12:12:54;96986.72;;;13.65
71640;BMP280;60912;48.968;10.124;2024-02-14T12:15:20;96993.34;;;13.77
71640;BMP280;60912;48.968;10.124;2024-02-14T12:17:47;96986.69;;;13.73
71640;BMP280;60912;48.968;10.124;2024-02-14T12:20:14;96992.22;;;13.58
71640;BMP280;60912;48.968;10.124;2024-02-14T12:22:40;96992.25;;;13.50
71640;BMP280;60912;48.968;10.124;2024-02-14T12:25:07;97002.03;;;13.36
71640;BMP280;60912;48.968;10.124;2024-02-14T12:27:34;96996.81;;;13.10
71640;BMP280;60912;48.968;10.124;2024-02-14T12:30:02;97000.13;;;13.01
71640;BMP280;60912;48.968;10.124;2024-02-14T12:32:28;96998.09;;;13.09
71640;BMP280;60912;48.968;10.124;2024-02-14T12:34:56;96997.19;;;13.14
71640;BMP280;60912;48.968;10.124;2024-02-14T12:37:22;97000.50;;;13.12
71640;BMP280;60912;48.968;10.124;2024-02-14T12:39:48;97001.41;;;13.07
71640;BMP280;60912;48.968;10.124;2024-02-14T12:42:13;96999.53;;;12.87
71640;BMP280;60912;48.968;10.124;2024-02-14T12:44:39;97008.91;;;12.76
71640;BMP280;60912;48.968;10.124;2024-02-14T12:47:05;97017.22;;;12.76
71640;BMP280;60912;48.968;10.124;2024-02-14T12:49:31;97013.50;;;12.74
71640;BMP280;60912;48.968;10.124;2024-02-14T12:51:57;97015.53;;;12.81
71640;BMP280;60912;48.968;10.124;2024-02-14T12:54:22;97012.75;;;12.73
71640;BMP280;60912;48.968;10.124;2024-02-14T12:56:48;97016.06;;;12.79
71640;BMP280;60912;48.968;10.124;2024-02-14T12:59:16;97015.34;;;12.71
71640;BMP280;60912;48.968;10.124;2024-02-14T13:01:43;97017.63;;;12.52
71640;BMP280;60912;48.968;10.124;2024-02-14T13:04:08;97019.69;;;12.52
71640;BMP280;60912;48.968;10.124;2024-02-14T13:06:35;97016.94;;;12.59
71640;BMP280;60912;48.968;10.124;2024-02-14T13:09:00;97014.53;;;12.56
71640;BMP280;60912;48.968;10.124;2024-02-14T13:11:26;97015.03;;;12.47
71640;BMP280;60912;48.968;10.124;2024-02-14T13:13:51;97013.97;;;12.50
71640;BMP280;60912;48.968;10.124;2024-02-14T13:16:16;97016.41;;;12.61
71640;BMP280;60912;48.968;10.124;2024-02-14T13:18:42;97016.31;;;12.46
71640;BMP280;60912;48.968;10.124;2024-02-14T13:21:07;97024.63;;;12.53
71640;BMP280;60912;48.968;10.124;2024-02-14T13:23:32;97016.09;;;12.72
71640;BMP280;60912;48.968;10.124;2024-02-14T13:25:58;97014.25;;;12.82
71640;BMP280;60912;48.968;10.124;2024-02-14T13:28:23;97014.50;;;13.07
71640;BMP280;60912;48.968;10.124;2024-02-14T13:30:49;96998.09;;;13.01
71640;BMP280;60912;48.968;10.124;2024-02-14T13:33:15;97010.66;;;13.10
71640;BMP280;60912;48.968;10.124;2024-02-14T13:35:40;97013.06;;;13.13
71640;BMP280;60912;48.968;10.124;2024-02-14T13:38:06;97015.09;;;13.28
71640;BMP280;60912;48.968;10.124;2024-02-14T13:40:31;97016.78;;;13.46
71640;BMP280;60912;48.968;10.124;2024-02-14T13:42:57;97014.78;;;13.62
71640;BMP280;60912;48.968;10.124;2024-02-14T13:45:23;97009.56;;;13.66
71640;BMP280;60912;48.968;10.124;2024-02-14T13:47:49;97004.06;;;13.73
71640;BMP280;60912;48.968;10.124;2024-02-14T13:50:14;96998.13;;;13.85
71640;BMP280;60912;48.968;10.124;2024-02-14T13:52:40;96998.88;;;13.85
71640;BMP280;60912;48.968;10.124;2024-02-14T13:55:05;97006.44;;;13.69
71640;BMP280;60912;48.968;10.124;2024-02-14T13:57:39;97004.03;;;13.58